sensor_id;sensor_type;location;lat;lon;timestamp;temperature;humidity
30893;DHT22;17595;50.884;4.346;2023-12-20T00:01:01;8.60;99.90
30893;DHT22;17595;50.884;4.346;2023-12-20T00:03:27;8.60;99.90
30893;DHT22;17595;50.884;4.346;2023-12-20T00:05:52;8.70;99.90
30893;DHT22;17595;50.884;4.346;2023-12-20T00:08:18;8.60;99.90
30893;DHT22;17595;50.884;4.346;2023-12-20T00:10:44;8.60;99.90
30893;DHT22;17595;50.884;4.346;2023-12-20T00:13:10;8.60;99.90
30893;DHT22;17595;50.884;4.346;2023-12-20T00:15:36;8.60;99.90
30893;DHT22;17595;50.884;4.346;2023-12-20T00:18:01;8.60;99.90
30893;DHT22;17595;50.884;4.346;2023-12-20T00:20:28;8.60;99.90
30893;DHT22;17595;50.884;4.346;2023-12-20T00:22:57;8.60;99.90
30893;DHT22;17595;50.884;4.346;2023-12-20T00:25:23;8.60;99.90
30893;DHT22;17595;50.884;4.346;2023-12-20T00:27:48;8.60;99.90
30893;DHT22;17595;50.884;4.346;2023-12-20T00:30:14;8.60;99.90
30893;DHT22;17595;50.884;4.346;2023-12-20T00:32:40;8.70;99.90
30893;DHT22;17595;50.884;4.346;2023-12-20T00:35:12;8.70;99.90
30893;DHT22;17595;50.884;4.346;2023-12-20T00:37:37;8.80;99.90
30893;DHT22;17595;50.884;4.346;2023-12-20T00:40:03;8.90;99.90
30893;DHT22;17595;50.884;4.346;2023-12-20T00:42:29;8.80;99.90
30893;DHT22;17595;50.884;4.346;2023-12-20T00:44:55;8.80;99.90
30893;DHT22;17595;50.884;4.346;2023-12-20T00:47:20;8.80;99.90
30893;DHT22;17595;50.884;4.346;2023-12-20T00:49:47;8.80;99.90
30893;DHT22;17595;50.884;4.346;2023-12-20T00:52:13;8.70;99.90
30893;DHT22;17595;50.884;4.346;2023-12-20T00:54:39;8.50;99.90
30893;DHT22;17595;50.884;4.346;2023-12-20T00:57:04;8.40;99.90
30893;DHT22;17595;50.884;4.346;2023-12-20T00:59:30;8.30;99.90
30893;DHT22;17595;50.884;4.346;2023-12-20T01:01:56;8.30;99.90
30893;DHT22;17595;50.884;4.346;2023-12-20T01:04:21;8.20;99.90
30893;DHT22;17595;50.884;4.346;2023-12-20T01:06:47;8.30;99.90
30893;DHT22;17595;50.884;4.346;2023-12-20T01:09:12;8.20;99.90
30893;DHT22;17595;50.884;4.346;2023-12-20T01:11:38;8.20;99.90
30893;DHT22;17595;50.884;4.346;2023-12-20T01:14:03;8.30;99.90
30893;DHT22;17595;50.884;4.346;2023-12-20T01:16:29;8.30;99.90
30893;DHT22;17595;50.884;4.346;2023-12-20T01:18:55;8.20;99.90
30893;DHT22;17595;50.884;4.346;2023-12-20T01:21:20;8.00;99.90
30893;DHT22;17595;50.884;4.346;2023-12-20T01:23:46;8.10;99.90
30893;DHT22;17595;50.884;4.346;2023-12-20T01:26:12;8.10;99.90
30893;DHT22;17595;50.884;4.346;2023-12-20T01:28:37;8.20;99.90
30893;DHT22;17595;50.884;4.346;2023-12-20T01:31:03;8.30;99.90
30893;DHT22;17595;50.884;4.346;2023-12-20T01:33:29;8.30;99.90
30893;DHT22;17595;50.884;4.346;2023-12-20T01:35:55;8.40;99.90
30893;DHT22;17595;50.884;4.346;2023-12-20T01:38:20;8.50;99.90
30893;DHT22;17595;50.884;4.346;2023-12-20T01:40:46;8.50;99.90
30893;DHT22;17595;50.884;4.346;2023-12-20T01:43:12;8.40;99.90
30893;DHT22;17595;50.884;4.346;2023-12-20T01:45:38;8.40;99.90
30893;DHT22;17595;50.884;4.346;2023-12-20T01:48:05;8.40;99.90
30893;DHT22;17595;50.884;4.346;2023-12-20T01:50:31;8.40;99.90
30893;DHT22;17595;50.884;4.346;2023-12-20T01:53:01;8.50;99.90
30893;DHT22;17595;50.884;4.346;2023-12-20T01:55:29;8.50;99.90
30893;DHT22;17595;50.884;4.346;2023-12-20T01:57:56;8.40;99.90
30893;DHT22;17595;50.884;4.346;2023-12-20T02:00:23;8.50;99.90
30893;DHT22;17595;50.884;4.346;2023-12-20T02:02:50;8.60;99.90
30893;DHT22;17595;50.884;4.346;2023-12-20T02:05:16;8.80;99.90
30893;DHT22;17595;50.884;4.346;2023-12-20T02:07:42;8.60;99.90
30893;DHT22;17595;50.884;4.346;2023-12-20T02:10:08;8.70;99.90
30893;DHT22;17595;50.884;4.346;2023-12-20T02:12:33;8.70;99.90
30893;DHT22;17595;50.884;4.346;2023-12-20T02:14:59;8.60;99.90
30893;DHT22;17595;50.884;4.346;2023-12-20T02:17:26;8.60;99.90
30893;DHT22;17595;50.884;4.346;2023-12-20T02:19:52;8.40;99.90
30893;DHT22;17595;50.884;4.346;2023-12-20T02:22:17;8.40;99.90
30893;DHT22;17595;50.884;4.346;2023-12-20T02:24:43;8.50;99.90
30893;DHT22;17595;50.884;4.346;2023-12-20T02:27:09;8.40;99.90
30893;DHT22;17595;50.884;4.346;2023-12-20T02:29:35;8.40;99.90
30893;DHT22;17595;50.884;4.346;2023-12-20T02:32:01;8.40;99.90
30893;DHT22;17595;50.884;4.346;2023-12-20T02:34:26;8.40;99.90
30893;DHT22;17595;50.884;4.346;2023-12-20T02:36:52;8.30;99.90
30893;DHT22;17595;50.884;4.346;2023-12-20T02:39:18;8.30;99.90
30893;DHT22;17595;50.884;4.346;2023-12-20T02:41:44;8.30;99.90
30893;DHT22;17595;50.884;4.346;2023-12-20T02:44:10;8.40;99.90
30893;DHT22;17595;50.884;4.346;2023-12-20T02:46:35;8.40;99.90
30893;DHT22;17595;50.884;4.346;2023-12-20T02:49:01;8.30;99.90
30893;DHT22;17595;50.884;4.346;2023-12-20T02:51:27;8.30;99.90
30893;DHT22;17595;50.884;4.346;2023-12-20T02:53:52;8.30;99.90
30893;DHT22;17595;50.884;4.346;2023-12-20T02:56:18;8.20;99.90
30893;DHT22;17595;50.884;4.346;2023-12-20T02:58:43;8.30;99.90
30893;DHT22;17595;50.884;4.346;2023-12-20T03:01:09;8.30;99.90
30893;DHT22;17595;50.884;4.346;2023-12-20T03:03:35;8.40;99.90
30893;DHT22;17595;50.884;4.346;2023-12-20T03:06:00;8.50;99.90
30893;DHT22;17595;50.884;4.346;2023-12-20T03:08:26;8.60;99.90
30893;DHT22;17595;50.884;4.346;2023-12-20T03:10:52;8.70;99.90
30893;DHT22;17595;50.884;4.346;2023-12-20T03:13:19;8.70;99.90
30893;DHT22;17595;50.884;4.346;2023-12-20T03:15:45;8.80;99.90
30893;DHT22;17595;50.884;4.346;2023-12-20T03:18:11;8.90;99.90
30893;DHT22;17595;50.884;4.346;2023-12-20T03:20:36;9.00;99.90
30893;DHT22;17595;50.884;4.346;2023-12-20T03:23:02;9.10;99.90
30893;DHT22;17595;50.884;4.346;2023-12-20T03:25:28;9.10;99.90
30893;DHT22;17595;50.884;4.346;2023-12-20T03:27:53;9.10;99.90
30893;DHT22;17595;50.884;4.346;2023-12-20T03:30:19;9.10;99.90
30893;DHT22;17595;50.884;4.346;2023-12-20T03:32:45;9.00;99.90
30893;DHT22;17595;50.884;4.346;2023-12-20T03:35:11;9.10;99.90
30893;DHT22;17595;50.884;4.346;2023-12-20T03:37:36;9.00;99.90
30893;DHT22;17595;50.884;4.346;2023-12-20T03:40:02;8.80;99.90
30893;DHT22;17595;50.884;4.346;2023-12-20T03:42:28;8.80;99.90
30893;DHT22;17595;50.884;4.346;2023-12-20T03:44:54;8.70;99.90
30893;DHT22;17595;50.884;4.346;2023-12-20T03:47:20;8.70;99.90
30893;DHT22;17595;50.884;4.346;2023-12-20T03:49:45;8.80;99.90
30893;DHT22;17595;50.884;4.346;2023-12-20T03:52:11;8.80;99.90
30893;DHT22;17595;50.884;4.346;2023-12-20T03:54:37;8.80;99.90
30893;DHT22;17595;50.884;4.346;2023-12-20T03:57:03;8.90;99.90
30893;DHT22;17595;50.884;4.346;2023-12-20T03:59:30;8.80;99.90
30893;DHT22;17595;50.884;4.346;2023-12-20T04:01:55;8.60;99.90
30893;DHT22;17595;50.884;4.346;2023-12-20T04:04:21;8.60;99.90
30893;DHT22;17595;50.884;4.346;2023-12-20T04:06:47;8.50;99.90
30893;DHT22;17595;50.884;4.346;2023-12-20T04:09:12;8.50;99.90
30893;DHT22;17595;50.884;4.346;2023-12-20T04:11:38;8.50;99.90
30893;DHT22;17595;50.884;4.346;2023-12-20T04:14:03;8.70;99.90
30893;DHT22;17595;50.884;4.346;2023-12-20T04:16:32;8.80;99.90
30893;DHT22;17595;50.884;4.346;2023-12-20T04:18:58;9.00;99.90
30893;DHT22;17595;50.884;4.346;2023-12-20T04:21:24;9.00;99.90
30893;DHT22;17595;50.884;4.346;2023-12-20T04:23:50;9.00;99.90
30893;DHT22;17595;50.884;4.346;2023-12-20T04:26:15;9.00;99.90
30893;DHT22;17595;50.884;4.346;2023-12-20T04:28:41;9.00;99.90
30893;DHT22;17595;50.884;4.346;2023-12-20T04:31:07;9.10;99.90
30893;DHT22;17595;50.884;4.346;2023-12-20T04:33:32;9.00;99.90
30893;DHT22;17595;50.884;4.346;2023-12-20T04:35:58;8.90;99.90
30893;DHT22;17595;50.884;4.346;2023-12-20T04:38:25;8.80;99.90
30893;DHT22;17595;50.884;4.346;2023-12-20T04:40:51;8.80;99.90
30893;DHT22;17595;50.884;4.346;2023-12-20T04:43:17;8.60;99.90
30893;DHT22;17595;50.884;4.346;2023-12-20T04:45:42;8.60;99.90
30893;DHT22;17595;50.884;4.346;2023-12-20T04:48:08;8.70;99.90
30893;DHT22;17595;50.884;4.346;2023-12-20T04:50:33;8.70;99.90
30893;DHT22;17595;50.884;4.346;2023-12-20T04:52:59;8.70;99.90
30893;DHT22;17595;50.884;4.346;2023-12-20T04:55:25;8.80;99.90
30893;DHT22;17595;50.884;4.346;2023-12-20T04:57:50;8.90;99.90
30893;DHT22;17595;50.884;4.346;2023-12-20T05:00:16;9.00;99.90
30893;DHT22;17595;50.884;4.346;2023-12-20T05:02:42;8.90;99.90
30893;DHT22;17595;50.884;4.346;2023-12-20T05:05:08;8.90;99.90
30893;DHT22;17595;50.884;4.346;2023-12-20T05:07:33;9.00;99.90
30893;DHT22;17595;50.884;4.346;2023-12-20T05:09:59;9.00;99.90
30893;DHT22;17595;50.884;4.346;2023-12-20T05:12:25;9.10;99.90
30893;DHT22;17595;50.884;4.346;2023-12-20T05:14:51;9.10;99.90
30893;DHT22;17595;50.884;4.346;2023-12-20T05:17:17;9.10;99.90
30893;DHT22;17595;50.884;4.346;2023-12-20T05:19:43;9.20;99.90
30893;DHT22;17595;50.884;4.346;2023-12-20T05:22:09;9.20;99.90
30893;DHT22;17595;50.884;4.346;2023-12-20T05:24:34;9.10;99.90
30893;DHT22;17595;50.884;4.346;2023-12-20T05:27:00;9.00;99.90
30893;DHT22;17595;50.884;4.346;2023-12-20T05:29:25;8.90;99.90
30893;DHT22;17595;50.884;4.346;2023-12-20T05:31:51;8.70;99.90
30893;DHT22;17595;50.884;4.346;2023-12-20T05:34:17;8.50;99.90
30893;DHT22;17595;50.884;4.346;2023-12-20T05:36:42;8.50;99.90
30893;DHT22;17595;50.884;4.346;2023-12-20T05:39:08;8.60;99.90
30893;DHT22;17595;50.884;4.346;2023-12-20T05:41:34;8.70;99.90
30893;DHT22;17595;50.884;4.346;2023-12-20T05:44:00;8.70;99.90
30893;DHT22;17595;50.884;4.346;2023-12-20T05:46:26;8.60;99.90
30893;DHT22;17595;50.884;4.346;2023-12-20T05:48:51;8.60;99.90
30893;DHT22;17595;50.884;4.346;2023-12-20T05:51:17;8.60;99.90
30893;DHT22;17595;50.884;4.346;2023-12-20T05:53:44;8.70;99.90
30893;DHT22;17595;50.884;4.346;2023-12-20T05:56:09;8.80;99.90
30893;DHT22;17595;50.884;4.346;2023-12-20T05:58:35;8.90;99.90
30893;DHT22;17595;50.884;4.346;2023-12-20T06:01:04;8.90;99.90
30893;DHT22;17595;50.884;4.346;2023-12-20T06:03:30;9.00;99.90
30893;DHT22;17595;50.884;4.346;2023-12-20T06:05:55;9.00;99.90
30893;DHT22;17595;50.884;4.346;2023-12-20T06:08:21;9.10;99.90
30893;DHT22;17595;50.884;4.346;2023-12-20T06:10:47;9.10;99.90
30893;DHT22;17595;50.884;4.346;2023-12-20T06:13:12;9.00;99.90
30893;DHT22;17595;50.884;4.346;2023-12-20T06:15:39;8.90;99.90
30893;DHT22;17595;50.884;4.346;2023-12-20T06:18:06;9.00;99.90
30893;DHT22;17595;50.884;4.346;2023-12-20T06:20:32;8.90;99.90
30893;DHT22;17595;50.884;4.346;2023-12-20T06:22:58;9.00;99.90
30893;DHT22;17595;50.884;4.346;2023-12-20T06:25:23;9.00;99.90
30893;DHT22;17595;50.884;4.346;2023-12-20T06:27:49;9.10;99.90
30893;DHT22;17595;50.884;4.346;2023-12-20T06:30:16;9.20;99.90
30893;DHT22;17595;50.884;4.346;2023-12-20T06:32:41;9.20;99.90
30893;DHT22;17595;50.884;4.346;2023-12-20T06:35:08;9.10;99.90
30893;DHT22;17595;50.884;4.346;2023-12-20T06:37:34;9.10;99.90
30893;DHT22;17595;50.884;4.346;2023-12-20T06:40:00;9.00;99.90
30893;DHT22;17595;50.884;4.346;2023-12-20T06:42:26;8.90;99.90
30893;DHT22;17595;50.884;4.346;2023-12-20T06:44:52;8.80;99.90
30893;DHT22;17595;50.884;4.346;2023-12-20T06:47:17;8.80;99.90
30893;DHT22;17595;50.884;4.346;2023-12-20T06:49:43;8.80;99.90
30893;DHT22;17595;50.884;4.346;2023-12-20T06:52:09;8.80;99.90
30893;DHT22;17595;50.884;4.346;2023-12-20T06:54:36;8.80;99.90
30893;DHT22;17595;50.884;4.346;2023-12-20T06:57:01;8.80;99.90
30893;DHT22;17595;50.884;4.346;2023-12-20T06:59:29;8.80;99.90
30893;DHT22;17595;50.884;4.346;2023-12-20T07:01:54;8.90;99.90
30893;DHT22;17595;50.884;4.346;2023-12-20T07:04:20;8.90;99.90
30893;DHT22;17595;50.884;4.346;2023-12-20T07:06:50;9.00;99.90
30893;DHT22;17595;50.884;4.346;2023-12-20T07:09:22;8.80;99.90
30893;DHT22;17595;50.884;4.346;2023-12-20T07:11:48;8.80;99.90
30893;DHT22;17595;50.884;4.346;2023-12-20T07:14:14;8.90;99.90
30893;DHT22;17595;50.884;4.346;2023-12-20T07:16:40;8.90;99.90
30893;DHT22;17595;50.884;4.346;2023-12-20T07:19:06;9.00;99.90
30893;DHT22;17595;50.884;4.346;2023-12-20T07:21:31;8.90;99.90
30893;DHT22;17595;50.884;4.346;2023-12-20T07:23:57;9.00;99.90
30893;DHT22;17595;50.884;4.346;2023-12-20T07:26:23;9.00;99.90
30893;DHT22;17595;50.884;4.346;2023-12-20T07:28:49;9.10;99.90
30893;DHT22;17595;50.884;4.346;2023-12-20T07:31:18;9.00;99.90
30893;DHT22;17595;50.884;4.346;2023-12-20T07:33:43;9.00;99.90
30893;DHT22;17595;50.884;4.346;2023-12-20T07:36:09;9.00;99.90
30893;DHT22;17595;50.884;4.346;2023-12-20T07:38:35;9.00;99.90
30893;DHT22;17595;50.884;4.346;2023-12-20T07:41:01;8.90;99.90
30893;DHT22;17595;50.884;4.346;2023-12-20T07:43:27;8.90;99.90
30893;DHT22;17595;50.884;4.346;2023-12-20T07:45:52;8.80;99.90
30893;DHT22;17595;50.884;4.346;2023-12-20T07:48:18;8.90;99.90
30893;DHT22;17595;50.884;4.346;2023-12-20T07:50:43;8.90;99.90
30893;DHT22;17595;50.884;4.346;2023-12-20T07:53:09;8.80;99.90
30893;DHT22;17595;50.884;4.346;2023-12-20T07:55:35;8.80;99.90
30893;DHT22;17595;50.884;4.346;2023-12-20T07:58:00;8.90;99.90
30893;DHT22;17595;50.884;4.346;2023-12-20T08:00:27;8.80;99.90
30893;DHT22;17595;50.884;4.346;2023-12-20T08:02:52;8.80;99.90
30893;DHT22;17595;50.884;4.346;2023-12-20T08:05:18;8.90;99.90
30893;DHT22;17595;50.884;4.346;2023-12-20T08:07:44;8.80;99.90
30893;DHT22;17595;50.884;4.346;2023-12-20T08:10:10;8.70;99.90
30893;DHT22;17595;50.884;4.346;2023-12-20T08:12:35;8.70;99.90
30893;DHT22;17595;50.884;4.346;2023-12-20T08:15:01;8.70;99.90
30893;DHT22;17595;50.884;4.346;2023-12-20T08:17:27;8.80;99.90
30893;DHT22;17595;50.884;4.346;2023-12-20T08:19:53;8.80;99.90
30893;DHT22;17595;50.884;4.346;2023-12-20T08:22:18;8.80;99.90
30893;DHT22;17595;50.884;4.346;2023-12-20T08:24:44;8.90;99.90
30893;DHT22;17595;50.884;4.346;2023-12-20T08:27:10;9.00;99.90
30893;DHT22;17595;50.884;4.346;2023-12-20T08:29:35;8.80;99.90
30893;DHT22;17595;50.884;4.346;2023-12-20T08:32:01;8.80;99.90
30893;DHT22;17595;50.884;4.346;2023-12-20T08:34:27;8.80;99.90
30893;DHT22;17595;50.884;4.346;2023-12-20T08:36:53;8.80;99.90
30893;DHT22;17595;50.884;4.346;2023-12-20T08:39:19;8.80;99.90
30893;DHT22;17595;50.884;4.346;2023-12-20T08:41:44;8.90;99.90
30893;DHT22;17595;50.884;4.346;2023-12-20T08:44:10;8.90;99.90
30893;DHT22;17595;50.884;4.346;2023-12-20T08:46:36;8.80;99.90
30893;DHT22;17595;50.884;4.346;2023-12-20T08:49:02;8.90;99.90
30893;DHT22;17595;50.884;4.346;2023-12-20T08:51:28;9.00;99.90
30893;DHT22;17595;50.884;4.346;2023-12-20T08:53:54;9.00;99.90
30893;DHT22;17595;50.884;4.346;2023-12-20T08:56:20;9.00;99.90
30893;DHT22;17595;50.884;4.346;2023-12-20T08:58:46;9.00;99.90
30893;DHT22;17595;50.884;4.346;2023-12-20T09:01:13;8.90;99.90
30893;DHT22;17595;50.884;4.346;2023-12-20T09:03:39;9.00;99.90
30893;DHT22;17595;50.884;4.346;2023-12-20T09:06:05;9.00;99.90
30893;DHT22;17595;50.884;4.346;2023-12-20T09:08:31;9.00;99.90
30893;DHT22;17595;50.884;4.346;2023-12-20T09:10:56;9.10;99.90
30893;DHT22;17595;50.884;4.346;2023-12-20T09:13:22;9.10;99.90
30893;DHT22;17595;50.884;4.346;2023-12-20T09:15:54;9.00;99.90
30893;DHT22;17595;50.884;4.346;2023-12-20T09:18:20;9.10;99.90
30893;DHT22;17595;50.884;4.346;2023-12-20T09:20:46;9.00;99.90
30893;DHT22;17595;50.884;4.346;2023-12-20T09:23:12;9.00;99.90
30893;DHT22;17595;50.884;4.346;2023-12-20T09:25:37;9.00;99.90
30893;DHT22;17595;50.884;4.346;2023-12-20T09:28:03;9.00;99.90
30893;DHT22;17595;50.884;4.346;2023-12-20T09:30:29;9.10;99.90
30893;DHT22;17595;50.884;4.346;2023-12-20T09:32:55;9.20;99.90
30893;DHT22;17595;50.884;4.346;2023-12-20T09:35:21;9.30;99.90
30893;DHT22;17595;50.884;4.346;2023-12-20T09:37:47;9.20;99.90
30893;DHT22;17595;50.884;4.346;2023-12-20T09:40:18;9.00;99.90
30893;DHT22;17595;50.884;4.346;2023-12-20T09:43:10;9.10;99.90
30893;DHT22;17595;50.884;4.346;2023-12-20T09:45:35;9.10;99.90
30893;DHT22;17595;50.884;4.346;2023-12-20T09:48:01;9.20;99.90
30893;DHT22;17595;50.884;4.346;2023-12-20T09:50:30;9.30;99.90
30893;DHT22;17595;50.884;4.346;2023-12-20T09:52:58;9.40;99.90
30893;DHT22;17595;50.884;4.346;2023-12-20T09:55:27;9.50;99.90
30893;DHT22;17595;50.884;4.346;2023-12-20T09:57:53;9.60;99.90
30893;DHT22;17595;50.884;4.346;2023-12-20T10:00:19;9.40;99.90
30893;DHT22;17595;50.884;4.346;2023-12-20T10:03:06;9.10;99.90
30893;DHT22;17595;50.884;4.346;2023-12-20T10:05:33;8.90;99.90
30893;DHT22;17595;50.884;4.346;2023-12-20T10:08:00;8.80;99.90
30893;DHT22;17595;50.884;4.346;2023-12-20T10:10:26;8.80;99.90
30893;DHT22;17595;50.884;4.346;2023-12-20T10:13:09;8.80;99.90
30893;DHT22;17595;50.884;4.346;2023-12-20T10:15:36;8.90;99.90
30893;DHT22;17595;50.884;4.346;2023-12-20T10:18:02;9.00;99.90
30893;DHT22;17595;50.884;4.346;2023-12-20T10:20:30;9.30;99.90
30893;DHT22;17595;50.884;4.346;2023-12-20T10:22:58;9.30;99.90
30893;DHT22;17595;50.884;4.346;2023-12-20T10:25:24;9.20;99.90
30893;DHT22;17595;50.884;4.346;2023-12-20T10:30:33;9.40;99.90
30893;DHT22;17595;50.884;4.346;2023-12-20T10:32:59;9.60;99.90
30893;DHT22;17595;50.884;4.346;2023-12-20T10:35:24;9.70;99.90
30893;DHT22;17595;50.884;4.346;2023-12-20T10:37:52;9.80;99.90
30893;DHT22;17595;50.884;4.346;2023-12-20T10:40:21;9.80;99.90
30893;DHT22;17595;50.884;4.346;2023-12-20T10:42:47;9.70;99.90
30893;DHT22;17595;50.884;4.346;2023-12-20T10:45:13;9.70;99.90
30893;DHT22;17595;50.884;4.346;2023-12-20T10:47:39;9.60;99.90
30893;DHT22;17595;50.884;4.346;2023-12-20T10:50:06;9.50;99.90
30893;DHT22;17595;50.884;4.346;2023-12-20T10:52:34;9.50;99.90
30893;DHT22;17595;50.884;4.346;2023-12-20T10:55:01;9.50;99.90
30893;DHT22;17595;50.884;4.346;2023-12-20T10:57:27;9.60;99.90
30893;DHT22;17595;50.884;4.346;2023-12-20T10:59:54;9.80;99.90
30893;DHT22;17595;50.884;4.346;2023-12-20T11:02:22;9.90;99.90
30893;DHT22;17595;50.884;4.346;2023-12-20T11:04:55;9.80;99.90
30893;DHT22;17595;50.884;4.346;2023-12-20T11:07:29;10.00;99.90
30893;DHT22;17595;50.884;4.346;2023-12-20T11:10:19;10.10;99.90
30893;DHT22;17595;50.884;4.346;2023-12-20T11:15:30;10.10;99.90
30893;DHT22;17595;50.884;4.346;2023-12-20T11:17:56;10.00;99.90
30893;DHT22;17595;50.884;4.346;2023-12-20T11:20:23;10.00;99.90
30893;DHT22;17595;50.884;4.346;2023-12-20T11:22:53;10.10;99.90
30893;DHT22;17595;50.884;4.346;2023-12-20T11:25:19;10.20;99.90
30893;DHT22;17595;50.884;4.346;2023-12-20T11:28:10;10.40;99.90
30893;DHT22;17595;50.884;4.346;2023-12-20T11:30:46;10.60;99.90
30893;DHT22;17595;50.884;4.346;2023-12-20T11:33:15;10.50;99.90
30893;DHT22;17595;50.884;4.346;2023-12-20T11:35:42;10.60;99.90
30893;DHT22;17595;50.884;4.346;2023-12-20T11:38:10;10.40;99.90
30893;DHT22;17595;50.884;4.346;2023-12-20T11:40:36;10.40;99.90
30893;DHT22;17595;50.884;4.346;2023-12-20T11:43:03;10.30;99.90
30893;DHT22;17595;50.884;4.346;2023-12-20T11:45:29;10.40;99.90
30893;DHT22;17595;50.884;4.346;2023-12-20T11:47:56;10.40;99.90
30893;DHT22;17595;50.884;4.346;2023-12-20T11:50:23;10.30;99.90
30893;DHT22;17595;50.884;4.346;2023-12-20T11:52:51;10.10;99.90
30893;DHT22;17595;50.884;4.346;2023-12-20T11:55:17;10.00;99.90
30893;DHT22;17595;50.884;4.346;2023-12-20T11:57:43;9.90;99.90
30893;DHT22;17595;50.884;4.346;2023-12-20T12:00:09;10.00;99.90
30893;DHT22;17595;50.884;4.346;2023-12-20T12:02:35;10.10;99.90
30893;DHT22;17595;50.884;4.346;2023-12-20T12:05:01;10.00;99.90
30893;DHT22;17595;50.884;4.346;2023-12-20T12:07:27;9.80;99.90
30893;DHT22;17595;50.884;4.346;2023-12-20T12:09:53;9.80;99.90
30893;DHT22;17595;50.884;4.346;2023-12-20T12:12:19;9.80;99.90
30893;DHT22;17595;50.884;4.346;2023-12-20T12:14:45;9.80;99.90
30893;DHT22;17595;50.884;4.346;2023-12-20T12:17:12;9.90;99.90
30893;DHT22;17595;50.884;4.346;2023-12-20T12:19:41;9.90;99.90
30893;DHT22;17595;50.884;4.346;2023-12-20T12:22:07;9.90;99.90
30893;DHT22;17595;50.884;4.346;2023-12-20T12:24:36;10.00;99.90
30893;DHT22;17595;50.884;4.346;2023-12-20T12:27:02;10.10;99.90
30893;DHT22;17595;50.884;4.346;2023-12-20T12:29:29;10.20;99.90
30893;DHT22;17595;50.884;4.346;2023-12-20T12:31:55;10.40;99.90
30893;DHT22;17595;50.884;4.346;2023-12-20T12:34:20;10.40;99.90
30893;DHT22;17595;50.884;4.346;2023-12-20T12:36:46;10.50;99.90
30893;DHT22;17595;50.884;4.346;2023-12-20T12:39:14;10.40;99.90
30893;DHT22;17595;50.884;4.346;2023-12-20T12:41:42;10.30;99.90
30893;DHT22;17595;50.884;4.346;2023-12-20T12:44:08;10.10;99.90
30893;DHT22;17595;50.884;4.346;2023-12-20T12:46:34;10.00;99.90
30893;DHT22;17595;50.884;4.346;2023-12-20T12:48:59;10.00;99.90
30893;DHT22;17595;50.884;4.346;2023-12-20T12:51:25;10.10;99.90
30893;DHT22;17595;50.884;4.346;2023-12-20T12:53:51;10.10;99.90
30893;DHT22;17595;50.884;4.346;2023-12-20T12:56:17;10.10;99.90
30893;DHT22;17595;50.884;4.346;2023-12-20T12:58:42;10.10;99.90
30893;DHT22;17595;50.884;4.346;2023-12-20T13:01:08;10.20;99.90
30893;DHT22;17595;50.884;4.346;2023-12-20T13:03:35;10.20;99.90
30893;DHT22;17595;50.884;4.346;2023-12-20T13:06:01;10.20;99.90
30893;DHT22;17595;50.884;4.346;2023-12-20T13:08:27;10.20;99.90
30893;DHT22;17595;50.884;4.346;2023-12-20T13:10:52;10.10;99.90
30893;DHT22;17595;50.884;4.346;2023-12-20T13:13:18;10.20;99.90
30893;DHT22;17595;50.884;4.346;2023-12-20T13:15:44;10.30;99.90
30893;DHT22;17595;50.884;4.346;2023-12-20T13:18:19;10.20;99.90
30893;DHT22;17595;50.884;4.346;2023-12-20T13:20:44;10.40;99.90
30893;DHT22;17595;50.884;4.346;2023-12-20T13:23:10;10.60;99.90
30893;DHT22;17595;50.884;4.346;2023-12-20T13:25:36;10.80;99.90
30893;DHT22;17595;50.884;4.346;2023-12-20T13:28:02;10.90;99.90
30893;DHT22;17595;50.884;4.346;2023-12-20T13:30:29;10.80;99.90
30893;DHT22;17595;50.884;4.346;2023-12-20T13:32:55;10.70;99.90
30893;DHT22;17595;50.884;4.346;2023-12-20T13:35:20;10.70;99.90
30893;DHT22;17595;50.884;4.346;2023-12-20T13:37:47;10.80;99.90
30893;DHT22;17595;50.884;4.346;2023-12-20T13:40:12;10.70;99.90
30893;DHT22;17595;50.884;4.346;2023-12-20T13:42:41;10.60;99.90
30893;DHT22;17595;50.884;4.346;2023-12-20T13:45:07;10.60;99.90
30893;DHT22;17595;50.884;4.346;2023-12-20T13:47:33;10.70;99.90
30893;DHT22;17595;50.884;4.346;2023-12-20T13:49:58;10.80;99.90
30893;DHT22;17595;50.884;4.346;2023-12-20T13:52:24;10.80;99.90
30893;DHT22;17595;50.884;4.346;2023-12-20T13:54:50;10.80;99.90
30893;DHT22;17595;50.884;4.346;2023-12-20T13:57:16;10.90;99.90
30893;DHT22;17595;50.884;4.346;2023-12-20T13:59:41;11.00;99.90
30893;DHT22;17595;50.884;4.346;2023-12-20T14:02:07;10.90;99.90
30893;DHT22;17595;50.884;4.346;2023-12-20T14:04:33;11.00;99.90
30893;DHT22;17595;50.884;4.346;2023-12-20T14:06:58;10.80;99.90
30893;DHT22;17595;50.884;4.346;2023-12-20T14:09:24;10.70;99.90
30893;DHT22;17595;50.884;4.346;2023-12-20T14:11:50;10.80;99.90
30893;DHT22;17595;50.884;4.346;2023-12-20T14:14:16;10.90;99.90
30893;DHT22;17595;50.884;4.346;2023-12-20T14:16:41;10.90;99.90
30893;DHT22;17595;50.884;4.346;2023-12-20T14:19:10;10.90;99.90
30893;DHT22;17595;50.884;4.346;2023-12-20T14:21:36;11.00;99.90
30893;DHT22;17595;50.884;4.346;2023-12-20T14:24:02;11.20;99.90
30893;DHT22;17595;50.884;4.346;2023-12-20T14:26:30;11.10;99.90
30893;DHT22;17595;50.884;4.346;2023-12-20T14:28:55;11.00;99.90
30893;DHT22;17595;50.884;4.346;2023-12-20T14:31:21;11.00;99.90
30893;DHT22;17595;50.884;4.346;2023-12-20T14:33:49;10.80;99.90
30893;DHT22;17595;50.884;4.346;2023-12-20T14:36:17;10.80;99.90
30893;DHT22;17595;50.884;4.346;2023-12-20T14:38:43;10.90;99.90
30893;DHT22;17595;50.884;4.346;2023-12-20T14:41:09;10.90;99.90
30893;DHT22;17595;50.884;4.346;2023-12-20T14:43:35;11.00;99.90
30893;DHT22;17595;50.884;4.346;2023-12-20T14:46:01;11.00;99.90
30893;DHT22;17595;50.884;4.346;2023-12-20T14:48:27;11.10;99.90
30893;DHT22;17595;50.884;4.346;2023-12-20T14:50:53;11.20;99.90
30893;DHT22;17595;50.884;4.346;2023-12-20T14:53:19;11.20;99.90
30893;DHT22;17595;50.884;4.346;2023-12-20T14:55:45;11.30;99.90
30893;DHT22;17595;50.884;4.346;2023-12-20T14:58:11;11.40;99.90
30893;DHT22;17595;50.884;4.346;2023-12-20T15:00:37;11.40;99.90
30893;DHT22;17595;50.884;4.346;2023-12-20T15:03:03;11.40;99.90
30893;DHT22;17595;50.884;4.346;2023-12-20T15:05:31;11.50;99.90
30893;DHT22;17595;50.884;4.346;2023-12-20T15:07:56;11.40;99.90
30893;DHT22;17595;50.884;4.346;2023-12-20T15:10:22;11.50;99.90
30893;DHT22;17595;50.884;4.346;2023-12-20T15:12:48;11.60;99.90
30893;DHT22;17595;50.884;4.346;2023-12-20T15:15:13;11.70;99.90
30893;DHT22;17595;50.884;4.346;2023-12-20T15:17:39;11.80;99.90
30893;DHT22;17595;50.884;4.346;2023-12-20T15:20:05;11.90;99.90
30893;DHT22;17595;50.884;4.346;2023-12-20T15:22:31;11.80;99.90
30893;DHT22;17595;50.884;4.346;2023-12-20T15:24:59;11.80;99.90
30893;DHT22;17595;50.884;4.346;2023-12-20T15:27:25;11.80;99.90
30893;DHT22;17595;50.884;4.346;2023-12-20T15:29:50;11.70;99.90
30893;DHT22;17595;50.884;4.346;2023-12-20T15:32:17;11.70;99.90
30893;DHT22;17595;50.884;4.346;2023-12-20T15:34:44;11.50;99.90
30893;DHT22;17595;50.884;4.346;2023-12-20T15:37:10;11.50;99.90
30893;DHT22;17595;50.884;4.346;2023-12-20T15:39:36;11.40;99.90
30893;DHT22;17595;50.884;4.346;2023-12-20T15:42:02;11.40;99.90